Thursday, January 18, 2018, 11:00 PM EST
Back to Local

KBAF, Westfield Barnes Municipal

Location: Westfield, MA, United States Lat: 42.167
Local Time: 11:00 PM EST ( 4:00 GMT) Lon: -72.717
Time Zone: US/Eastern Elev: 272 ft

Show me the last for .
Show Coded

Time T Td Feel RH Dir Speed Gust Alt SLP Vis Weather Sky Remarks
2018-01-18 21:53 22 14 10 71 290° 13 - 30.01 30.03 10 OVC034 None
2018-01-18 20:53 22 14 11 71 290° 10 - 30.00 30.03 10 BKN035 None
2018-01-18 19:53 22 14 11 71 290° 10 - 29.97 30.00 10 CLR None
2018-01-18 18:53 21 13 12 70 330° 7 - 29.96 29.99 10 CLR 6-hr Min Temp (7pm): 21.0°F
6-hr Max Temp (7pm): 28.0°F
2018-01-18 17:53 21 13 13 70 300° 6 - 29.94 29.97 10 CLR None
2018-01-18 16:53 25 14 16 62 320° 8 - 29.92 29.95 10 CLR None
2018-01-18 15:53 27 14 17 57 310° 12 - 29.89 29.91 10 CLR None
2018-01-18 14:53 28 14 17 55 310° 14 - 29.88 29.91 10 CLR None
2018-01-18 13:53 27 13 17 54 310° 10 - 29.89 29.92 10 CLR None
2018-01-18 12:53 26 12 14 54 310° 15 - 29.92 29.94 10 CLR 6-hr Min Temp (1pm): 3.0°F
6-hr Max Temp (1pm): 26.1°F
2018-01-18 11:53 26 13 16 56 300° 12 - 29.96 29.98 10 CLR None
2018-01-18 10:53 24 12 14 59 310° 10 - 29.99 30.01 10 CLR None
2018-01-18 09:53 19 12 - 73 - Calm - 30.00 30.03 10 CLR None
2018-01-18 08:53 11 9 - 91 - Calm - 30.01 30.03 10 CLR None
2018-01-18 07:53 6 4 - 90 - Calm - 30.00 30.03 10 CLR None
2018-01-18 06:53 4 3 - 95 - Calm - 29.99 30.02 10 CLR 24-hr Precip Total (7am): 0.07"
6-hr Min Temp (7am): 3.9°F
6-hr Max Temp (7am): 15.1°F
2018-01-18 05:53 6 4 -1 90 40° 3 - 29.99 30.02 10 CLR None
2018-01-18 04:53 8 5 - 86 - Calm - 30.01 30.03 10 CLR None
2018-01-18 03:53 6 5 - 95 - Calm - 30.03 30.05 10 CLR None
2018-01-18 02:53 8 7 - 95 - Calm - 30.06 30.09 10 CLR None
2018-01-18 01:53 14 9 6 79 300° 5 - 30.07 30.09 10 CLR None
2018-01-18 00:53 14 9 - 79 - Calm - 30.08 30.10 10 CLR 6-hr Min Temp (1am): 10.9°F
6-hr Max Temp (1am): 25.0°F
2018-01-17 23:53 17 11 10 76 340° 5 - 30.11 30.13 10 CLR 24-hr Min Temp (12am): 14.0°F
24-hr Max Temp (12am): 32.0°F

Support USWX by starting your Amazon purchase here.